createdAt,value
2018-09-29T00:01:52.098Z,5.03
2018-09-29T00:04:21.160Z,3.70
2018-09-29T00:06:50.477Z,5.30
2018-09-29T00:09:19.632Z,4.87
2018-09-29T00:11:48.743Z,3.97
2018-09-29T00:14:17.927Z,4.40
2018-09-29T00:16:46.943Z,4.27
2018-09-29T00:19:17.512Z,4.77
2018-09-29T00:21:46.771Z,6.57
2018-09-29T00:24:15.838Z,3.33
2018-09-29T00:26:44.886Z,6.17
2018-09-29T00:29:13.930Z,5.83
2018-09-29T00:31:43.917Z,6.03
2018-09-29T00:34:12.997Z,4.70
2018-09-29T00:36:42.197Z,4.37
2018-09-29T00:39:11.414Z,3.97
2018-09-29T00:41:40.622Z,4.37
2018-09-29T00:44:10.778Z,5.30
2018-09-29T00:46:40.490Z,5.27
2018-09-29T00:49:09.804Z,5.97
2018-09-29T00:51:39.078Z,5.10
2018-09-29T00:54:09.446Z,4.10
2018-09-29T00:56:38.531Z,5.03
2018-09-29T00:59:07.753Z,3.27
2018-09-29T01:01:37.495Z,3.77
2018-09-29T01:04:08.118Z,5.53
2018-09-29T01:06:37.426Z,5.13
2018-09-29T01:09:08.378Z,7.83
2018-09-29T01:11:37.543Z,4.50
2018-09-29T01:14:06.725Z,5.97
2018-09-29T01:16:36.939Z,4.43
2018-09-29T01:19:06.114Z,4.13
2018-09-29T01:21:35.304Z,4.20
2018-09-29T01:24:04.393Z,5.60
2018-09-29T01:26:33.589Z,4.80
2018-09-29T01:29:02.919Z,8.50
2018-09-29T01:31:32.170Z,3.63
2018-09-29T01:34:02.029Z,7.83
2018-09-29T01:36:31.071Z,3.53
2018-09-29T01:39:00.189Z,6.17
2018-09-29T01:41:29.249Z,4.63
2018-09-29T01:43:58.351Z,4.83
2018-09-29T01:46:27.486Z,6.90
2018-09-29T01:48:56.643Z,3.37
2018-09-29T01:51:26.483Z,7.00
2018-09-29T01:53:55.710Z,6.00
2018-09-29T01:56:24.887Z,7.20
2018-09-29T01:58:54.114Z,6.27
2018-09-29T02:01:23.851Z,3.67
2018-09-29T02:03:52.965Z,3.67
2018-09-29T02:06:22.166Z,4.00
2018-09-29T02:08:51.471Z,3.93
2018-09-29T02:11:20.670Z,7.07
2018-09-29T02:13:49.785Z,6.83
2018-09-29T02:16:19.091Z,7.57
2018-09-29T02:18:48.292Z,3.53
2018-09-29T02:21:17.403Z,5.53
2018-09-29T02:23:46.577Z,7.47
2018-09-29T02:26:15.786Z,4.60
2018-09-29T02:28:44.950Z,5.73
2018-09-29T02:31:14.267Z,7.17
2018-09-29T02:33:43.586Z,4.23
2018-09-29T02:36:12.923Z,4.17
2018-09-29T02:38:42.088Z,4.13
2018-09-29T02:41:11.207Z,5.83
2018-09-29T02:43:40.305Z,5.17
2018-09-29T02:46:09.578Z,10.00
2018-09-29T02:48:38.627Z,8.40
2018-09-29T02:51:07.882Z,6.63
2018-09-29T02:54:18.102Z,4.40
2018-09-29T02:56:50.431Z,4.57
2018-09-29T02:59:23.078Z,7.90
2018-09-29T03:01:56.242Z,7.60
2018-09-29T03:04:26.334Z,7.87
2018-09-29T03:06:55.697Z,5.23
2018-09-29T03:09:26.652Z,3.27
2018-09-29T03:11:55.863Z,5.67
2018-09-29T03:14:25.000Z,4.70
2018-09-29T03:17:08.231Z,4.00
2018-09-29T03:19:44.573Z,5.73
2018-09-29T03:22:24.611Z,8.37
2018-09-29T03:24:54.454Z,6.30
2018-09-29T03:27:30.762Z,8.13
2018-09-29T03:30:20.962Z,3.33
2018-09-29T03:36:24.914Z,4.97
2018-09-29T03:42:42.542Z,6.97
2018-09-29T03:45:22.103Z,6.03
2018-09-29T03:47:58.860Z,7.80
2018-09-29T03:51:03.309Z,5.43
2018-09-29T03:53:32.501Z,5.37
2018-09-29T03:56:01.584Z,8.17
2018-09-29T03:58:30.841Z,5.53
2018-09-29T04:00:59.964Z,5.40
2018-09-29T04:03:29.056Z,5.83
2018-09-29T04:05:58.230Z,8.13
2018-09-29T04:08:27.816Z,7.03
2018-09-29T04:10:56.924Z,8.87
2018-09-29T04:13:26.056Z,8.33
2018-09-29T04:15:55.110Z,6.47
2018-09-29T04:18:24.267Z,8.60
2018-09-29T04:20:53.469Z,7.57
2018-09-29T04:23:22.598Z,6.57
2018-09-29T04:25:51.948Z,6.57
2018-09-29T04:28:21.835Z,9.07
2018-09-29T04:30:50.967Z,6.17
2018-09-29T04:33:21.166Z,6.90
2018-09-29T04:35:50.211Z,6.47
2018-09-29T04:38:19.363Z,6.67
2018-09-29T04:40:48.657Z,5.47
2018-09-29T04:43:18.039Z,7.10
2018-09-29T04:45:47.110Z,6.53
2018-09-29T04:48:16.276Z,9.00
2018-09-29T04:50:45.663Z,4.00
2018-09-29T04:53:14.777Z,4.37
2018-09-29T04:55:44.141Z,8.50
2018-09-29T04:58:13.288Z,4.77
2018-09-29T05:00:42.870Z,9.87
2018-09-29T05:03:12.494Z,4.50
2018-09-29T05:05:41.576Z,6.97
2018-09-29T05:08:10.652Z,7.47
2018-09-29T05:10:39.759Z,9.23
2018-09-29T05:13:08.923Z,9.50
2018-09-29T05:15:38.999Z,7.90
2018-09-29T05:18:08.109Z,8.20
2018-09-29T05:20:37.163Z,9.30
2018-09-29T05:23:06.563Z,11.07
2018-09-29T05:25:35.661Z,9.03
2018-09-29T05:28:04.762Z,8.47
2018-09-29T05:30:33.939Z,9.40
2018-09-29T05:33:03.339Z,5.87
2018-09-29T05:35:32.507Z,5.80
2018-09-29T05:38:01.668Z,6.73
2018-09-29T05:40:31.349Z,10.37
2018-09-29T05:43:00.715Z,8.70
2018-09-29T05:45:30.030Z,8.43
2018-09-29T05:47:59.835Z,8.93
2018-09-29T05:50:28.990Z,6.10
2018-09-29T05:52:58.093Z,9.47
2018-09-29T05:55:28.201Z,6.07
2018-09-29T05:57:57.536Z,16.80
2018-09-29T06:00:27.227Z,7.47
2018-09-29T06:02:56.479Z,6.67
2018-09-29T06:05:25.628Z,8.03
2018-09-29T06:07:54.970Z,8.33
2018-09-29T06:10:24.187Z,7.37
2018-09-29T06:12:53.335Z,11.40
2018-09-29T06:15:23.030Z,8.37
2018-09-29T06:17:52.154Z,16.60
2018-09-29T06:20:21.202Z,8.77
2018-09-29T06:22:50.383Z,9.53
2018-09-29T06:25:20.139Z,6.93
2018-09-29T06:27:49.419Z,11.43
2018-09-29T06:30:18.557Z,8.80
2018-09-29T06:32:47.781Z,7.33
2018-09-29T06:35:16.822Z,10.17
2018-09-29T06:37:45.978Z,5.97
2018-09-29T06:40:15.148Z,7.50
2018-09-29T06:42:44.309Z,5.63
2018-09-29T06:45:13.594Z,8.73
2018-09-29T06:47:42.632Z,7.63
2018-09-29T06:50:11.892Z,8.20
2018-09-29T06:52:41.161Z,9.73
2018-09-29T06:55:10.322Z,8.00
2018-09-29T06:57:39.578Z,4.77
2018-09-29T07:00:08.637Z,7.53
2018-09-29T07:02:37.822Z,6.33
2018-09-29T07:05:07.007Z,6.30
2018-09-29T07:07:35.999Z,5.13
2018-09-29T07:10:06.891Z,4.03
2018-09-29T07:12:36.761Z,7.87
2018-09-29T07:15:06.749Z,5.80
2018-09-29T07:17:36.170Z,5.97
2018-09-29T07:20:05.384Z,4.80
2018-09-29T07:22:34.642Z,6.93
2018-09-29T07:25:03.865Z,4.57
2018-09-29T07:27:33.090Z,7.87
2018-09-29T07:30:02.184Z,7.10
2018-09-29T07:32:31.357Z,6.23
2018-09-29T07:35:00.526Z,9.00
2018-09-29T07:37:29.675Z,9.23
2018-09-29T07:39:59.075Z,7.17
2018-09-29T07:42:28.154Z,11.60
2018-09-29T07:44:57.228Z,9.10
2018-09-29T07:47:27.406Z,3.50
2018-09-29T07:49:56.624Z,3.50
2018-09-29T07:52:25.932Z,17.63
2018-09-29T07:54:55.216Z,5.30
2018-09-29T07:57:24.449Z,6.13
2018-09-29T07:59:53.717Z,6.00
2018-09-29T08:02:22.819Z,7.43
2018-09-29T08:04:51.880Z,4.33
2018-09-29T08:07:22.394Z,6.80
2018-09-29T08:09:51.586Z,5.23
2018-09-29T08:12:21.004Z,5.40
2018-09-29T08:14:50.178Z,7.17
2018-09-29T08:17:19.370Z,7.93
2018-09-29T08:19:48.629Z,7.37
2018-09-29T08:22:17.819Z,6.13
2018-09-29T08:24:47.027Z,4.40
2018-09-29T08:27:16.203Z,10.27
2018-09-29T08:29:46.354Z,5.43
2018-09-29T08:32:15.416Z,4.77
2018-09-29T08:34:44.486Z,5.83
2018-09-29T08:37:13.559Z,4.87
2018-09-29T08:39:42.686Z,5.07
2018-09-29T08:42:12.798Z,5.33
2018-09-29T08:44:42.067Z,5.47
2018-09-29T08:47:11.195Z,9.07
2018-09-29T08:49:40.393Z,4.00
2018-09-29T08:52:09.874Z,4.90
2018-09-29T08:54:38.965Z,4.20
2018-09-29T08:57:08.053Z,10.28
2018-09-29T08:59:37.173Z,5.87
2018-09-29T09:02:07.163Z,6.30
2018-09-29T09:04:36.348Z,8.65
2018-09-29T09:07:06.726Z,6.28
2018-09-29T09:09:35.944Z,5.97
2018-09-29T09:12:05.156Z,7.03
2018-09-29T09:14:34.354Z,3.95
2018-09-29T09:17:03.833Z,7.37
2018-09-29T09:19:32.983Z,3.67
2018-09-29T09:22:01.991Z,4.10
2018-09-29T09:24:31.431Z,3.40
2018-09-29T09:27:00.525Z,2.72
2018-09-29T09:29:29.730Z,2.33
2018-09-29T09:31:59.037Z,3.17
2018-09-29T09:34:28.367Z,5.40
2018-09-29T09:36:57.569Z,3.30
2018-09-29T09:39:26.629Z,4.30
2018-09-29T09:41:55.760Z,4.25
2018-09-29T09:44:24.989Z,4.03
2018-09-29T09:46:54.255Z,5.70
2018-09-29T09:49:24.007Z,5.58
2018-09-29T09:51:53.262Z,4.42
2018-09-29T09:54:22.414Z,5.08
2018-09-29T09:56:52.533Z,4.37
2018-09-29T09:59:21.719Z,4.78
2018-09-29T10:01:55.993Z,6.37
2018-09-29T10:04:25.094Z,5.75
2018-09-29T10:06:54.779Z,4.03
2018-09-29T10:09:23.866Z,4.40
2018-09-29T10:11:52.991Z,6.12
2018-09-29T10:14:22.471Z,3.12
2018-09-29T10:16:52.660Z,6.67
2018-09-29T10:19:21.754Z,7.25
2018-09-29T10:21:50.796Z,4.08
2018-09-29T10:24:19.945Z,4.50
2018-09-29T10:26:49.289Z,7.75
2018-09-29T10:29:18.550Z,5.90
2018-09-29T10:31:47.731Z,3.50
2018-09-29T10:34:16.961Z,4.80
2018-09-29T10:36:45.932Z,8.40
2018-09-29T10:39:14.982Z,6.33
2018-09-29T10:41:44.142Z,3.08
2018-09-29T10:44:13.479Z,3.08
2018-09-29T10:46:43.359Z,2.47
2018-09-29T10:49:12.471Z,3.37
2018-09-29T10:51:42.724Z,5.10
2018-09-29T10:54:11.733Z,2.08
2018-09-29T10:56:40.924Z,5.15
2018-09-29T10:59:10.093Z,4.97
2018-09-29T11:01:39.294Z,5.75
2018-09-29T11:04:08.471Z,7.15
2018-09-29T11:06:37.622Z,5.75
2018-09-29T11:09:10.242Z,5.17
2018-09-29T11:11:41.149Z,5.62
2018-09-29T11:14:10.393Z,4.65
2018-09-29T11:16:39.624Z,4.30
2018-09-29T11:19:09.670Z,3.35
2018-09-29T11:21:38.802Z,3.08
2018-09-29T11:24:07.994Z,4.00
2018-09-29T11:26:37.755Z,3.15
2018-09-29T11:29:06.853Z,5.55
2018-09-29T11:31:36.025Z,4.90
2018-09-29T11:34:05.334Z,8.35
2018-09-29T11:36:35.191Z,3.77
2018-09-29T11:39:06.241Z,4.50
2018-09-29T11:41:35.464Z,4.45
2018-09-29T11:44:04.537Z,3.72
2018-09-29T11:46:33.931Z,2.50
2018-09-29T11:49:03.724Z,2.90
2018-09-29T11:51:33.071Z,3.45
2018-09-29T11:54:02.407Z,3.12
2018-09-29T11:56:31.558Z,3.05
2018-09-29T11:59:00.779Z,4.90
2018-09-29T12:01:29.947Z,5.62
2018-09-29T12:03:59.502Z,5.22
2018-09-29T12:06:28.674Z,4.30
2018-09-29T12:08:58.004Z,2.77
2018-09-29T12:11:27.271Z,2.33
2018-09-29T12:13:56.534Z,7.37
2018-09-29T12:16:25.665Z,3.52
2018-09-29T12:18:55.619Z,6.92
2018-09-29T12:21:24.753Z,1.80
2018-09-29T12:23:53.976Z,6.45
2018-09-29T12:26:24.367Z,2.70
2018-09-29T12:28:53.473Z,4.00
2018-09-29T12:31:22.883Z,2.42
2018-09-29T12:33:52.602Z,3.47
2018-09-29T12:36:22.014Z,3.70
2018-09-29T12:38:51.318Z,3.12
2018-09-29T12:41:20.503Z,2.47
2018-09-29T12:43:49.662Z,3.37
2018-09-29T12:46:18.960Z,2.33
2018-09-29T12:48:48.291Z,5.58
2018-09-29T12:51:17.539Z,1.85
2018-09-29T12:53:46.735Z,2.67
2018-09-29T12:56:16.823Z,2.42
2018-09-29T12:58:46.229Z,5.08
2018-09-29T13:01:15.560Z,5.37
2018-09-29T13:03:44.774Z,4.28
2018-09-29T13:06:14.035Z,3.80
2018-09-29T13:08:43.074Z,4.58
2018-09-29T13:11:12.338Z,2.33
2018-09-29T13:13:41.574Z,3.87
2018-09-29T13:16:10.670Z,1.98
2018-09-29T13:18:39.658Z,4.03
2018-09-29T13:21:08.728Z,3.95
2018-09-29T13:23:38.186Z,7.83
2018-09-29T13:26:07.283Z,2.67
2018-09-29T13:28:36.353Z,7.42
2018-09-29T13:31:05.361Z,6.40
2018-09-29T13:33:34.682Z,3.72
2018-09-29T13:36:03.783Z,4.62
2018-09-29T13:38:33.002Z,7.55
2018-09-29T13:41:02.278Z,3.83
2018-09-29T13:43:31.486Z,3.52
2018-09-29T13:46:00.919Z,2.52
2018-09-29T13:48:29.975Z,3.12
2018-09-29T13:50:59.182Z,5.17
2018-09-29T13:53:28.385Z,3.12
2018-09-29T13:55:57.694Z,3.25
2018-09-29T13:58:27.530Z,3.85
2018-09-29T14:00:56.913Z,2.80
2018-09-29T14:03:26.355Z,3.55
2018-09-29T14:05:55.707Z,6.08
2018-09-29T14:08:24.933Z,2.98
2018-09-29T14:10:54.207Z,6.03
2018-09-29T14:13:23.551Z,3.35
2018-09-29T14:15:52.898Z,3.10
2018-09-29T14:18:22.098Z,3.87
2018-09-29T14:20:51.508Z,4.47
2018-09-29T14:23:20.563Z,3.02
2018-09-29T14:25:49.878Z,5.90
2018-09-29T14:28:19.161Z,4.30
2018-09-29T14:30:48.424Z,3.02
2018-09-29T14:33:17.622Z,1.87
2018-09-29T14:35:46.707Z,3.55
2018-09-29T14:38:15.972Z,4.45
2018-09-29T14:40:45.185Z,4.00
2018-09-29T14:43:14.494Z,4.95
2018-09-29T14:45:43.819Z,4.60
2018-09-29T14:48:13.013Z,3.60
2018-09-29T14:50:42.353Z,4.22
2018-09-29T14:53:11.598Z,6.40
2018-09-29T14:55:40.774Z,3.58
2018-09-29T14:58:09.964Z,5.00
2018-09-29T15:00:39.637Z,2.17
2018-09-29T15:03:08.962Z,3.57
2018-09-29T15:05:38.106Z,4.12
2018-09-29T15:08:07.262Z,4.08
2018-09-29T15:10:36.320Z,2.90
2018-09-29T15:13:05.503Z,2.97
2018-09-29T15:15:34.674Z,3.17
2018-09-29T15:18:04.134Z,3.43
2018-09-29T15:20:33.489Z,3.77
2018-09-29T15:23:02.709Z,3.42
2018-09-29T15:25:31.979Z,2.87
2018-09-29T15:28:01.292Z,2.03
2018-09-29T15:30:30.376Z,1.93
2018-09-29T15:32:59.678Z,5.33
2018-09-29T15:35:28.965Z,3.50
2018-09-29T15:37:58.190Z,2.77
2018-09-29T15:40:27.558Z,4.03
2018-09-29T15:42:57.021Z,2.00
2018-09-29T15:45:26.207Z,3.10
2018-09-29T15:47:55.418Z,3.20
2018-09-29T15:50:24.654Z,4.23
2018-09-29T15:52:53.855Z,6.47
2018-09-29T15:55:23.107Z,4.03
2018-09-29T15:57:52.352Z,3.27
2018-09-29T16:00:21.634Z,4.50
2018-09-29T16:02:50.933Z,5.53
2018-09-29T16:05:20.226Z,3.97
2018-09-29T16:07:49.517Z,3.90
2018-09-29T16:10:18.774Z,3.20
2018-09-29T16:12:47.986Z,7.60
2018-09-29T16:15:17.362Z,3.90
2018-09-29T16:17:46.613Z,5.70
2018-09-29T16:20:15.848Z,4.87
2018-09-29T16:22:45.066Z,3.23
2018-09-29T16:25:14.430Z,6.07
2018-09-29T16:27:43.577Z,5.33
2018-09-29T16:30:12.745Z,5.27
2018-09-29T16:32:42.019Z,4.30
2018-09-29T16:35:11.325Z,4.27
2018-09-29T16:37:40.451Z,4.23
2018-09-29T16:40:09.669Z,6.97
2018-09-29T16:42:38.847Z,4.93
2018-09-29T16:45:08.078Z,6.33
2018-09-29T16:47:37.437Z,5.70
2018-09-29T16:50:06.860Z,7.57
2018-09-29T16:52:36.138Z,5.77
2018-09-29T16:55:05.365Z,4.80
2018-09-29T16:57:34.564Z,5.40
2018-09-29T17:00:03.959Z,7.77
2018-09-29T17:02:33.777Z,5.23
2018-09-29T17:05:02.932Z,6.07
2018-09-29T17:07:32.191Z,8.47
2018-09-29T17:10:01.492Z,11.53
2018-09-29T17:12:30.787Z,12.60
2018-09-29T17:14:59.980Z,10.33
2018-09-29T17:17:29.247Z,10.80
2018-09-29T17:19:58.520Z,14.43
2018-09-29T17:22:27.803Z,9.90
2018-09-29T17:24:57.095Z,13.37
2018-09-29T17:27:26.449Z,5.87
2018-09-29T17:29:55.639Z,11.70
2018-09-29T17:32:25.006Z,6.97
2018-09-29T17:34:54.144Z,6.60
2018-09-29T17:37:23.455Z,11.37
2018-09-29T17:39:52.802Z,10.63
2018-09-29T17:42:22.159Z,8.73
2018-09-29T17:44:51.674Z,10.00
2018-09-29T17:47:20.776Z,7.40
2018-09-29T17:49:50.049Z,12.50
2018-09-29T17:52:19.453Z,12.43
2018-09-29T17:54:48.675Z,11.80
2018-09-29T17:57:17.792Z,11.00
2018-09-29T17:59:47.029Z,9.93
2018-09-29T18:02:16.336Z,10.73
2018-09-29T18:04:45.606Z,11.80
2018-09-29T18:07:14.874Z,12.77
2018-09-29T18:09:44.041Z,14.33
2018-09-29T18:12:13.348Z,13.10
2018-09-29T18:14:42.662Z,12.73
2018-09-29T18:17:11.841Z,17.23
2018-09-29T18:19:41.699Z,12.93
2018-09-29T18:22:10.766Z,14.67
2018-09-29T18:24:40.102Z,12.70
2018-09-29T18:27:09.380Z,12.57
2018-09-29T18:29:38.653Z,12.43
2018-09-29T18:32:07.857Z,11.90
2018-09-29T18:34:37.244Z,18.47
2018-09-29T18:37:06.647Z,11.63
2018-09-29T18:39:36.567Z,13.73
2018-09-29T18:42:05.782Z,8.77
2018-09-29T18:44:35.054Z,9.57
2018-09-29T18:47:04.279Z,11.77
2018-09-29T18:49:33.603Z,10.73
2018-09-29T18:52:02.869Z,12.73
2018-09-29T18:54:31.977Z,8.83
2018-09-29T18:57:01.163Z,9.67
2018-09-29T18:59:30.555Z,6.33
2018-09-29T19:01:59.798Z,11.57
2018-09-29T19:04:28.969Z,7.77
2018-09-29T19:06:58.113Z,8.50
2018-09-29T19:09:27.387Z,9.83
2018-09-29T19:11:56.598Z,10.80
2018-09-29T19:14:25.814Z,10.23
2018-09-29T19:16:55.252Z,10.33
2018-09-29T19:19:24.561Z,8.43
2018-09-29T19:21:53.887Z,8.43
2018-09-29T19:24:23.204Z,8.43
2018-09-29T19:26:52.364Z,11.63
2018-09-29T19:29:21.553Z,11.50
2018-09-29T19:31:50.746Z,17.77
2018-09-29T19:34:19.994Z,9.57
2018-09-29T19:36:49.714Z,8.43
2018-09-29T19:39:18.809Z,10.30
2018-09-29T19:41:47.947Z,6.50
2018-09-29T19:44:17.201Z,8.63
2018-09-29T19:46:46.471Z,10.43
2018-09-29T19:49:16.464Z,6.97
2018-09-29T19:51:45.680Z,11.70
2018-09-29T19:54:14.830Z,11.17
2018-09-29T19:56:44.046Z,9.67
2018-09-29T19:59:13.339Z,9.40
2018-09-29T20:01:42.442Z,12.07
2018-09-29T20:04:11.538Z,10.07
2018-09-29T20:06:40.791Z,10.00
2018-09-29T20:09:10.711Z,11.40
2018-09-29T20:11:39.985Z,9.67
2018-09-29T20:14:09.272Z,9.37
2018-09-29T20:16:38.518Z,8.70
2018-09-29T20:19:07.739Z,9.17
2018-09-29T20:21:36.915Z,9.73
2018-09-29T20:24:06.129Z,10.20
2018-09-29T20:26:35.254Z,6.03
2018-09-29T20:29:04.458Z,9.67
2018-09-29T20:31:33.685Z,10.70
2018-09-29T20:34:02.900Z,8.87
2018-09-29T20:36:32.198Z,11.33
2018-09-29T20:39:01.523Z,9.27
2018-09-29T20:41:30.774Z,8.57
2018-09-29T20:44:00.032Z,8.17
2018-09-29T20:46:29.856Z,7.47
2018-09-29T20:48:59.147Z,6.60
2018-09-29T20:51:28.240Z,7.53
2018-09-29T20:53:57.391Z,11.40
2018-09-29T20:56:26.884Z,8.70
2018-09-29T20:58:56.106Z,9.03
2018-09-29T21:01:25.423Z,10.43
2018-09-29T21:03:54.920Z,7.33
2018-09-29T21:06:24.308Z,5.77
2018-09-29T21:08:53.537Z,8.93
2018-09-29T21:11:22.797Z,8.70
2018-09-29T21:13:51.892Z,10.17
2018-09-29T21:16:21.170Z,6.47
2018-09-29T21:18:50.382Z,7.43
2018-09-29T21:21:19.675Z,6.73
2018-09-29T21:23:48.657Z,9.20
2018-09-29T21:26:17.870Z,10.23
2018-09-29T21:28:47.008Z,9.73
2018-09-29T21:31:16.297Z,7.43
2018-09-29T21:33:45.382Z,7.83
2018-09-29T21:36:14.494Z,8.70
2018-09-29T21:38:43.726Z,11.07
2018-09-29T21:41:13.927Z,12.47
2018-09-29T21:43:43.195Z,8.37
2018-09-29T21:46:12.452Z,8.97
2018-09-29T21:48:41.575Z,8.47
2018-09-29T21:51:10.678Z,7.20
2018-09-29T21:53:39.833Z,9.30
2018-09-29T21:56:09.011Z,7.40
2018-09-29T21:58:38.221Z,8.60
2018-09-29T22:01:12.772Z,9.77
2018-09-29T22:03:41.804Z,10.43
2018-09-29T22:06:10.996Z,10.37
2018-09-29T22:08:40.158Z,7.63
2018-09-29T22:11:09.392Z,7.87
2018-09-29T22:13:38.659Z,7.20
2018-09-29T22:16:08.097Z,11.33
2018-09-29T22:18:37.332Z,9.90
2018-09-29T22:21:06.732Z,9.97
2018-09-29T22:23:35.869Z,8.17
2018-09-29T22:26:05.232Z,9.60
2018-09-29T22:28:34.474Z,8.67
2018-09-29T22:31:03.637Z,9.70
2018-09-29T22:33:32.845Z,13.23
2018-09-29T22:36:02.253Z,8.33
2018-09-29T22:38:31.495Z,9.50
2018-09-29T22:41:00.748Z,8.33
2018-09-29T22:43:29.935Z,9.10
2018-09-29T22:45:59.100Z,6.97
2018-09-29T22:48:28.295Z,9.97
2018-09-29T22:50:57.495Z,7.33
2018-09-29T22:53:26.634Z,5.77
2018-09-29T22:55:55.841Z,6.03
2018-09-29T22:58:25.148Z,8.30
2018-09-29T23:00:54.278Z,8.03
2018-09-29T23:03:23.517Z,9.83
2018-09-29T23:05:52.677Z,7.57
2018-09-29T23:08:21.916Z,8.40
2018-09-29T23:10:51.154Z,11.23
2018-09-29T23:13:22.039Z,7.10
2018-09-29T23:15:51.226Z,9.80
2018-09-29T23:18:20.436Z,9.27
2018-09-29T23:20:49.585Z,7.93
2018-09-29T23:23:18.710Z,8.50
2018-09-29T23:25:47.943Z,8.17
2018-09-29T23:28:17.194Z,9.93
2018-09-29T23:30:46.369Z,5.83
2018-09-29T23:33:15.648Z,10.00
2018-09-29T23:35:44.917Z,5.53
2018-09-29T23:38:13.979Z,8.03
2018-09-29T23:40:43.187Z,6.03
2018-09-29T23:43:12.350Z,8.97
2018-09-29T23:45:41.718Z,5.90
2018-09-29T23:48:10.918Z,6.03
2018-09-29T23:50:40.108Z,6.67
2018-09-29T23:53:09.221Z,8.30
2018-09-29T23:55:38.350Z,7.43
2018-09-29T23:58:07.604Z,5.67
